createdAt,value
2023-05-14T00:00:48.435Z,101174.03
2023-05-14T00:03:17.084Z,101171.09
2023-05-14T00:05:45.504Z,101174.28
2023-05-14T00:08:15.210Z,101171.09
2023-05-14T00:10:43.572Z,101174.09
2023-05-14T00:13:12.077Z,101172.78
2023-05-14T00:15:40.478Z,101169.09
2023-05-14T00:18:12.192Z,101166.19
2023-05-14T00:20:40.618Z,101175.03
2023-05-14T00:23:09.131Z,101176.38
2023-05-14T00:25:39.070Z,101185.00
2023-05-14T00:28:07.449Z,101180.41
2023-05-14T00:30:35.832Z,101181.22
2023-05-14T00:33:04.295Z,101182.78
2023-05-14T00:35:35.341Z,101186.78
2023-05-14T00:38:03.814Z,101192.91
2023-05-14T00:40:32.203Z,101190.75
2023-05-14T00:43:02.119Z,101184.59
2023-05-14T00:45:30.511Z,101185.69
2023-05-14T00:47:58.877Z,101184.59
2023-05-14T00:50:27.743Z,101185.13
2023-05-14T00:52:56.233Z,101183.75
2023-05-14T00:55:24.774Z,101191.75
2023-05-14T00:57:54.821Z,101186.94
2023-05-14T01:00:25.151Z,101189.88
2023-05-14T01:02:53.708Z,101182.56
2023-05-14T01:05:24.157Z,101190.53
2023-05-14T01:08:04.560Z,101186.28
2023-05-14T01:10:40.697Z,101190.81
2023-05-14T01:13:15.056Z,101190.13
2023-05-14T01:15:47.946Z,101187.16
2023-05-14T01:18:19.694Z,101181.56
2023-05-14T01:20:51.120Z,101180.13
2023-05-14T01:23:21.268Z,101177.56
2023-05-14T01:25:49.616Z,101170.09
2023-05-14T01:28:19.858Z,101175.72
2023-05-14T01:30:53.296Z,101185.06
2023-05-14T01:33:26.322Z,101183.19
2023-05-14T01:35:56.149Z,101181.34
2023-05-14T01:38:26.199Z,101183.25
2023-05-14T01:40:55.744Z,101185.19
2023-05-14T01:43:25.156Z,101182.22
2023-05-14T01:45:55.496Z,101184.09
2023-05-14T01:48:24.207Z,101179.28
2023-05-14T01:50:52.586Z,101181.97
2023-05-14T01:53:20.909Z,101186.53
2023-05-14T01:55:50.665Z,101187.31
2023-05-14T01:58:19.014Z,101175.53
2023-05-14T02:00:47.355Z,101173.16
2023-05-14T02:03:15.726Z,101179.06
2023-05-14T02:05:44.153Z,101178.78
2023-05-14T02:08:12.483Z,101184.41
2023-05-14T02:10:40.859Z,101180.72
2023-05-14T02:13:10.896Z,101193.00
2023-05-14T02:15:40.017Z,101190.31
2023-05-14T02:18:08.334Z,101183.66
2023-05-14T02:20:36.808Z,101186.34
2023-05-14T02:23:05.410Z,101196.50
2023-05-14T02:25:33.775Z,101198.66
2023-05-14T02:28:02.122Z,101191.16
2023-05-14T02:30:31.851Z,101190.03
2023-05-14T02:33:00.464Z,101187.63
2023-05-14T02:35:28.870Z,101193.81
2023-05-14T02:37:57.228Z,101185.78
2023-05-14T02:40:25.759Z,101191.88
2023-05-14T02:42:54.409Z,101195.38
2023-05-14T02:45:22.819Z,101201.00
2023-05-14T02:47:52.592Z,101204.19
2023-05-14T02:50:21.337Z,101203.13
2023-05-14T02:52:49.885Z,101195.63
2023-05-14T02:55:18.455Z,101201.75
2023-05-14T02:57:46.870Z,101206.78
2023-05-14T03:00:15.850Z,101213.41
2023-05-14T03:02:44.905Z,101199.47
2023-05-14T03:05:15.279Z,101200.41
2023-05-14T03:07:43.599Z,101199.75
2023-05-14T03:10:12.414Z,101197.91
2023-05-14T03:12:40.946Z,101198.66
2023-05-14T03:15:10.398Z,101205.59
2023-05-14T03:17:38.815Z,101211.97
2023-05-14T03:20:08.477Z,101209.78
2023-05-14T03:22:38.389Z,101200.88
2023-05-14T03:25:07.477Z,101209.84
2023-05-14T03:27:35.811Z,101213.91
2023-05-14T03:30:04.170Z,101214.50
2023-05-14T03:32:32.708Z,101216.66
2023-05-14T03:35:01.089Z,101209.25
2023-05-14T03:37:29.407Z,101219.41
2023-05-14T03:39:59.158Z,101222.84
2023-05-14T03:42:27.439Z,101230.63
2023-05-14T03:44:55.852Z,101233.25
2023-05-14T03:47:24.216Z,101242.59
2023-05-14T03:49:52.607Z,101238.31
2023-05-14T03:52:20.936Z,101220.41
2023-05-14T03:54:49.397Z,101218.41
2023-05-14T03:57:19.115Z,101224.06
2023-05-14T03:59:47.398Z,101225.94
2023-05-14T04:02:15.872Z,101228.34
2023-05-14T04:04:44.398Z,101231.38
2023-05-14T04:07:12.730Z,101236.47
2023-05-14T04:09:41.082Z,101236.97
2023-05-14T04:12:10.183Z,101236.19
2023-05-14T04:14:40.169Z,101232.91
2023-05-14T04:17:08.463Z,101240.91
2023-05-14T04:19:36.790Z,101247.59
2023-05-14T04:22:05.492Z,101244.47
2023-05-14T04:24:33.886Z,101246.25
2023-05-14T04:27:02.213Z,101248.25
2023-05-14T04:29:30.598Z,101236.78
2023-05-14T04:32:00.547Z,101233.25
2023-05-14T04:34:29.109Z,101229.69
2023-05-14T04:36:57.474Z,101225.78
2023-05-14T04:39:26.046Z,101232.16
2023-05-14T04:41:54.388Z,101231.31
2023-05-14T04:44:22.921Z,101234.63
2023-05-14T04:46:51.292Z,101235.47
2023-05-14T04:49:21.100Z,101243.28
2023-05-14T04:51:49.484Z,101235.34
2023-05-14T04:54:17.832Z,101236.22
2023-05-14T04:56:46.321Z,101238.50
2023-05-14T04:59:14.653Z,101237.41
2023-05-14T05:01:42.988Z,101236.56
2023-05-14T05:04:11.414Z,101227.38
2023-05-14T05:06:41.435Z,101229.88
2023-05-14T05:09:10.059Z,101233.06
2023-05-14T05:11:39.021Z,101227.00
2023-05-14T05:14:07.437Z,101236.34
2023-05-14T05:16:35.860Z,101237.94
2023-05-14T05:19:04.556Z,101228.13
2023-05-14T05:21:33.196Z,101235.34
2023-05-14T05:24:03.257Z,101240.66
2023-05-14T05:26:31.839Z,101236.94
2023-05-14T05:29:00.156Z,101229.25
2023-05-14T05:31:29.120Z,101234.63
2023-05-14T05:33:57.522Z,101238.84
2023-05-14T05:36:25.821Z,101234.06
2023-05-14T05:38:54.297Z,101230.84
2023-05-14T05:41:24.067Z,101226.72
2023-05-14T05:43:52.542Z,101236.81
2023-05-14T05:46:20.984Z,101229.09
2023-05-14T05:48:49.246Z,101228.66
2023-05-14T05:51:17.665Z,101229.59
2023-05-14T05:53:46.421Z,101234.78
2023-05-14T05:56:14.734Z,101230.72
2023-05-14T05:58:44.444Z,101241.81
2023-05-14T06:01:12.826Z,101240.28
2023-05-14T06:03:41.219Z,101228.03
2023-05-14T06:06:10.022Z,101221.78
2023-05-14T06:08:38.333Z,101230.81
2023-05-14T06:11:06.818Z,101227.25
2023-05-14T06:13:35.150Z,101229.34
2023-05-14T06:16:05.303Z,101241.56
2023-05-14T06:18:33.721Z,101237.72
2023-05-14T06:21:02.136Z,101253.41
2023-05-14T06:23:31.357Z,101247.28
2023-05-14T06:25:59.622Z,101244.16
2023-05-14T06:28:27.985Z,101251.22
2023-05-14T06:30:56.329Z,101238.91
2023-05-14T06:33:30.991Z,101248.19
2023-05-14T06:36:00.088Z,101243.59
2023-05-14T06:38:28.572Z,101239.06
2023-05-14T06:40:56.905Z,101248.06
2023-05-14T06:43:25.332Z,101248.34
2023-05-14T06:45:54.302Z,101244.22
2023-05-14T06:48:22.947Z,101254.19
2023-05-14T06:50:52.727Z,101260.66
2023-05-14T06:53:21.196Z,101258.56
2023-05-14T06:55:49.716Z,101262.34
2023-05-14T06:58:17.960Z,101257.94
2023-05-14T07:00:46.915Z,101251.22
2023-05-14T07:03:15.307Z,101263.53
2023-05-14T07:05:45.084Z,101263.34
2023-05-14T07:08:14.930Z,101260.16
2023-05-14T07:10:43.341Z,101260.31
2023-05-14T07:13:11.632Z,101264.88
2023-05-14T07:15:39.982Z,101262.63
2023-05-14T07:18:08.285Z,101268.94
2023-05-14T07:20:36.650Z,101264.31
2023-05-14T07:23:05.089Z,101271.19
2023-05-14T07:25:34.872Z,101274.22
2023-05-14T07:28:03.281Z,101275.88
2023-05-14T07:30:31.718Z,101277.19
2023-05-14T07:33:00.212Z,101281.03
2023-05-14T07:35:28.622Z,101281.44
2023-05-14T07:37:57.024Z,101288.44
2023-05-14T07:40:26.400Z,101294.78
2023-05-14T07:42:56.464Z,101290.50
2023-05-14T07:45:24.907Z,101283.25
2023-05-14T07:47:53.421Z,101281.81
2023-05-14T07:50:22.407Z,101277.84
2023-05-14T07:52:50.964Z,101281.38
2023-05-14T07:55:19.538Z,101275.28
2023-05-14T07:57:47.831Z,101278.19
2023-05-14T08:00:18.140Z,101295.13
2023-05-14T08:02:46.728Z,101292.94
2023-05-14T08:05:15.441Z,101303.38
2023-05-14T08:07:43.780Z,101298.47
2023-05-14T08:10:12.678Z,101294.34
2023-05-14T08:12:41.236Z,101293.88
2023-05-14T08:15:10.760Z,101302.22
2023-05-14T08:17:40.642Z,101297.56
2023-05-14T08:20:10.427Z,101308.72
2023-05-14T08:22:38.689Z,101305.56
2023-05-14T08:25:07.939Z,101294.59
2023-05-14T08:27:36.371Z,101295.41
2023-05-14T08:30:05.447Z,101290.31
2023-05-14T08:32:33.790Z,101288.34
2023-05-14T08:35:03.586Z,101283.06
2023-05-14T08:37:32.086Z,101279.22
2023-05-14T08:40:00.449Z,101272.69
2023-05-14T08:42:30.495Z,101268.31
2023-05-14T08:45:02.549Z,101263.69
2023-05-14T08:47:32.083Z,101255.53
2023-05-14T08:50:05.206Z,101265.16
2023-05-14T08:52:36.095Z,101261.66
2023-05-14T08:55:07.098Z,101256.28
2023-05-14T08:57:36.017Z,101256.78
2023-05-14T09:00:08.503Z,101262.63
2023-05-14T09:02:38.105Z,101257.16
2023-05-14T09:05:09.362Z,101268.59
2023-05-14T09:07:37.852Z,101269.00
2023-05-14T09:10:07.041Z,101265.41
2023-05-14T09:12:36.539Z,101267.47
2023-05-14T09:15:05.435Z,101266.22
2023-05-14T09:17:35.961Z,101267.00
2023-05-14T09:20:06.307Z,101258.75
2023-05-14T09:22:36.466Z,101260.41
2023-05-14T09:25:06.372Z,101260.25
2023-05-14T09:27:35.305Z,101259.09
2023-05-14T09:30:11.863Z,101266.31
2023-05-14T09:32:42.685Z,101261.13
2023-05-14T09:35:12.832Z,101260.53
2023-05-14T09:37:45.011Z,101263.84
2023-05-14T09:40:14.058Z,101255.28
2023-05-14T09:42:42.684Z,101258.59
2023-05-14T09:45:12.308Z,101266.84
2023-05-14T09:47:41.151Z,101276.34
2023-05-14T09:50:11.072Z,101280.25
2023-05-14T09:52:39.992Z,101287.41
2023-05-14T09:55:10.704Z,101288.94
2023-05-14T09:57:39.224Z,101286.25
2023-05-14T10:00:10.329Z,101278.88
2023-05-14T10:02:41.393Z,101280.91
2023-05-14T10:05:10.654Z,101282.50
2023-05-14T10:07:42.974Z,101279.53
2023-05-14T10:10:19.058Z,101272.88
2023-05-14T10:12:53.295Z,101263.47
2023-05-14T10:15:25.284Z,101270.72
2023-05-14T10:18:00.620Z,101270.69
2023-05-14T10:20:29.821Z,101272.09
2023-05-14T10:22:59.680Z,101274.13
2023-05-14T10:25:29.496Z,101279.78
2023-05-14T10:27:58.608Z,101277.66
2023-05-14T10:30:27.303Z,101264.03
2023-05-14T10:33:09.502Z,101265.41
2023-05-14T10:35:56.865Z,101263.84
2023-05-14T10:38:27.404Z,101251.16
2023-05-14T10:41:05.415Z,101256.00
2023-05-14T10:43:39.407Z,101255.47
2023-05-14T10:46:09.018Z,101251.94
2023-05-14T10:48:38.873Z,101254.06
2023-05-14T10:51:10.437Z,101269.34
2023-05-14T10:53:39.854Z,101266.06
2023-05-14T10:56:11.510Z,101264.63
2023-05-14T10:58:41.368Z,101267.53
2023-05-14T11:01:11.607Z,101258.41
2023-05-14T11:03:45.177Z,101260.19
2023-05-14T11:06:15.294Z,101265.31
2023-05-14T11:08:44.048Z,101271.16
2023-05-14T11:11:14.272Z,101265.31
2023-05-14T11:13:44.127Z,101266.53
2023-05-14T11:16:22.589Z,101260.56
2023-05-14T11:19:02.358Z,101261.78
2023-05-14T11:21:31.978Z,101258.47
2023-05-14T11:24:01.864Z,101239.66
2023-05-14T11:26:33.326Z,101245.34
2023-05-14T11:29:02.120Z,101247.94
2023-05-14T11:31:30.604Z,101245.41
2023-05-14T11:33:59.147Z,101241.56
2023-05-14T11:36:27.667Z,101223.44
2023-05-14T11:38:56.106Z,101226.75
2023-05-14T11:41:24.857Z,101229.88
2023-05-14T11:43:54.629Z,101209.28
2023-05-14T11:46:24.035Z,101210.44
2023-05-14T11:48:53.359Z,101202.59
2023-05-14T11:51:23.288Z,101205.72
2023-05-14T11:53:51.851Z,101205.91
2023-05-14T11:56:21.444Z,101192.72
2023-05-14T11:58:51.247Z,101183.88
2023-05-14T12:01:20.955Z,101185.13
2023-05-14T12:03:49.568Z,101171.28
2023-05-14T12:06:19.646Z,101166.25
2023-05-14T12:08:49.688Z,101161.00
2023-05-14T12:11:22.768Z,101157.06
2023-05-14T12:13:51.317Z,101154.19
2023-05-14T12:16:22.398Z,101148.91
2023-05-14T12:18:50.940Z,101153.19
2023-05-14T12:21:19.797Z,101149.59
2023-05-14T12:23:48.323Z,101150.78
2023-05-14T12:26:16.636Z,101164.19
2023-05-14T12:28:49.337Z,101150.59
2023-05-14T12:31:17.682Z,101147.38
2023-05-14T12:33:47.362Z,101136.78
2023-05-14T12:38:48.786Z,101137.31
2023-05-14T12:41:17.438Z,101134.09
2023-05-14T12:43:46.189Z,101144.63
2023-05-14T12:46:14.657Z,101147.31
2023-05-14T12:48:43.054Z,101153.22
2023-05-14T12:51:13.075Z,101151.44
2023-05-14T12:53:41.424Z,101139.09
2023-05-14T12:56:10.105Z,101147.59
2023-05-14T12:58:38.733Z,101147.19
2023-05-14T13:01:07.750Z,101151.69
2023-05-14T13:03:36.445Z,101144.72
2023-05-14T13:06:05.087Z,101119.75
2023-05-14T13:08:35.529Z,101119.41
2023-05-14T13:11:04.274Z,101130.06
2023-05-14T13:13:32.685Z,101135.13
2023-05-14T13:16:01.114Z,101133.84
2023-05-14T13:18:31.662Z,101144.28
2023-05-14T13:21:00.028Z,101130.91
2023-05-14T13:23:28.366Z,101114.59
2023-05-14T13:25:58.799Z,101111.66
2023-05-14T13:28:27.198Z,101110.81
2023-05-14T13:31:10.941Z,101108.91
2023-05-14T13:33:42.817Z,101115.00
2023-05-14T13:36:12.054Z,101126.19
2023-05-14T13:38:40.655Z,101126.78
2023-05-14T13:41:10.600Z,101130.66
2023-05-14T13:43:39.204Z,101132.28
2023-05-14T13:46:07.839Z,101125.38
2023-05-14T13:48:37.446Z,101115.56
2023-05-14T13:51:05.895Z,101120.06
2023-05-14T13:53:34.225Z,101117.50
2023-05-14T13:56:02.685Z,101115.50
2023-05-14T13:58:32.508Z,101100.19
2023-05-14T14:01:01.003Z,101105.31
2023-05-14T14:03:29.503Z,101100.94
2023-05-14T14:05:57.840Z,101097.09
2023-05-14T14:08:26.561Z,101087.38
2023-05-14T14:10:56.059Z,101080.00
2023-05-14T14:13:24.688Z,101077.28
2023-05-14T14:15:54.763Z,101073.22
2023-05-14T14:18:23.100Z,101077.28
2023-05-14T14:20:51.533Z,101074.13
2023-05-14T14:23:19.825Z,101078.34
2023-05-14T14:25:48.217Z,101071.75
2023-05-14T14:28:16.751Z,101081.03
2023-05-14T14:30:45.180Z,101076.53
2023-05-14T14:33:15.045Z,101060.75
2023-05-14T14:35:43.750Z,101054.59
2023-05-14T14:38:12.581Z,101059.22
2023-05-14T14:40:40.877Z,101065.22
2023-05-14T14:43:09.371Z,101063.81
2023-05-14T14:45:37.772Z,101063.44
2023-05-14T14:48:27.943Z,101060.84
2023-05-14T14:54:07.273Z,101043.72
2023-05-14T14:56:35.925Z,101037.28
2023-05-14T14:59:04.254Z,101036.75
2023-05-14T15:01:32.627Z,101029.81
2023-05-14T15:04:01.017Z,101021.06
2023-05-14T15:06:29.565Z,101020.19
2023-05-14T15:08:57.920Z,101014.44
2023-05-14T15:11:28.975Z,101011.50
2023-05-14T15:13:57.576Z,101005.31
2023-05-14T15:16:26.169Z,101002.47
2023-05-14T15:18:54.560Z,101001.25
2023-05-14T15:21:23.166Z,100993.25
2023-05-14T15:23:51.568Z,101009.28
2023-05-14T15:26:20.111Z,101009.03
2023-05-14T15:28:50.045Z,101018.28
2023-05-14T15:31:18.603Z,101022.22
2023-05-14T15:33:47.026Z,101021.56
2023-05-14T15:36:15.372Z,101028.38
2023-05-14T15:38:43.718Z,101039.56
2023-05-14T15:41:12.172Z,101028.47
2023-05-14T15:43:40.522Z,101022.31
2023-05-14T15:46:10.428Z,101020.41
2023-05-14T15:48:38.959Z,101021.50
2023-05-14T15:51:07.468Z,101028.19
2023-05-14T15:53:35.904Z,101039.16
2023-05-14T15:56:04.665Z,101032.66
2023-05-14T15:58:33.062Z,101026.78
2023-05-14T16:01:01.616Z,101022.19
2023-05-14T16:03:31.398Z,101035.38
2023-05-14T16:06:00.025Z,101041.19
2023-05-14T16:08:28.775Z,101041.56
2023-05-14T16:10:57.199Z,101038.22
2023-05-14T16:13:25.571Z,101029.97
2023-05-14T16:15:54.093Z,101035.19
2023-05-14T16:18:22.598Z,101036.94
2023-05-14T16:20:53.557Z,101025.31
2023-05-14T16:23:22.022Z,101023.25
2023-05-14T16:25:50.380Z,101023.88
2023-05-14T16:28:19.172Z,101026.91
2023-05-14T16:30:47.737Z,101013.25
2023-05-14T16:33:16.503Z,101016.59
2023-05-14T16:35:45.564Z,101014.53
2023-05-14T16:38:15.329Z,101015.00
2023-05-14T16:40:43.797Z,101013.38
2023-05-14T16:43:12.319Z,101010.34
2023-05-14T16:45:41.312Z,101022.63
2023-05-14T16:48:09.660Z,101015.53
2023-05-14T16:50:38.260Z,101014.28
2023-05-14T16:53:06.648Z,101008.88
2023-05-14T16:55:36.400Z,101024.13
2023-05-14T16:58:04.713Z,101027.91
2023-05-14T17:00:33.135Z,101023.75
2023-05-14T17:03:02.493Z,101031.03
2023-05-14T17:05:31.064Z,101029.94
2023-05-14T17:07:59.428Z,101023.75
2023-05-14T17:10:30.311Z,101026.94
2023-05-14T17:13:00.320Z,101019.50
2023-05-14T17:15:28.769Z,101022.88
2023-05-14T17:17:57.504Z,101029.19
2023-05-14T17:20:27.267Z,101032.03
2023-05-14T17:22:55.648Z,101038.06
2023-05-14T17:25:26.459Z,101030.91
2023-05-14T17:27:55.098Z,101022.81
2023-05-14T17:30:27.036Z,101011.56
2023-05-14T17:32:55.460Z,101020.41
2023-05-14T17:35:24.146Z,101016.44
2023-05-14T17:37:52.681Z,101013.75
2023-05-14T17:40:21.464Z,101017.88
2023-05-14T17:42:49.844Z,101028.16
2023-05-14T17:45:20.844Z,101019.59
2023-05-14T17:47:52.099Z,101015.75
2023-05-14T17:50:21.101Z,101018.41
2023-05-14T17:52:49.467Z,101023.78
2023-05-14T17:55:19.357Z,101029.00
2023-05-14T17:57:47.882Z,101029.63
2023-05-14T18:00:16.765Z,101026.41
2023-05-14T18:02:45.229Z,101032.31
2023-05-14T18:05:15.067Z,101022.75
2023-05-14T18:07:43.496Z,101037.50
2023-05-14T18:10:12.193Z,101031.44
2023-05-14T18:12:40.531Z,101025.09
2023-05-14T18:15:09.811Z,101029.84
2023-05-14T18:17:38.176Z,101023.50
2023-05-14T18:20:09.156Z,101023.00
2023-05-14T18:22:39.096Z,101025.03
2023-05-14T18:25:09.630Z,101033.78
2023-05-14T18:27:44.461Z,101037.94
2023-05-14T18:30:14.719Z,101038.84
2023-05-14T18:32:44.155Z,101037.78
2023-05-14T18:35:14.158Z,101033.81
2023-05-14T18:37:43.926Z,101041.56
2023-05-14T18:40:16.886Z,101038.53
2023-05-14T18:42:46.804Z,101042.13
2023-05-14T18:45:15.268Z,101044.00
2023-05-14T18:47:43.847Z,101048.44
2023-05-14T18:50:12.745Z,101039.25
2023-05-14T18:52:41.241Z,101041.53
2023-05-14T18:55:11.433Z,101046.47
2023-05-14T18:57:39.773Z,101047.16
2023-05-14T19:00:09.472Z,101047.03
2023-05-14T19:02:38.988Z,101045.31
2023-05-14T19:05:08.422Z,101040.63
2023-05-14T19:07:38.067Z,101037.94
2023-05-14T19:10:07.939Z,101037.94
2023-05-14T19:12:37.721Z,101037.50
2023-05-14T19:15:07.044Z,101034.31
2023-05-14T19:17:35.524Z,101030.03
2023-05-14T19:20:04.657Z,101037.19
2023-05-14T19:22:33.201Z,101037.63
2023-05-14T19:25:01.632Z,101034.13
2023-05-14T19:27:30.265Z,101019.75
2023-05-14T19:29:59.974Z,101019.16
2023-05-14T19:32:28.319Z,101007.94
2023-05-14T19:34:56.791Z,101005.56
2023-05-14T19:37:26.301Z,101014.56
2023-05-14T19:39:54.587Z,101002.56
2023-05-14T19:42:22.969Z,100997.19
2023-05-14T19:44:51.463Z,100992.25
2023-05-14T19:47:21.358Z,100983.19
2023-05-14T19:49:49.700Z,100984.28
2023-05-14T19:52:18.063Z,100992.84
2023-05-14T19:54:46.396Z,100993.03
2023-05-14T19:57:14.771Z,100983.88
2023-05-14T19:59:44.529Z,100985.88
2023-05-14T20:02:18.593Z,100982.88
2023-05-14T20:04:48.571Z,100979.69
2023-05-14T20:07:17.294Z,100972.38
2023-05-14T20:09:46.549Z,100962.53
2023-05-14T20:12:14.878Z,100962.59
2023-05-14T20:14:43.626Z,100960.00
2023-05-14T20:17:12.177Z,100949.06
2023-05-14T20:19:41.338Z,100956.47
2023-05-14T20:22:11.405Z,100957.88
2023-05-14T20:24:41.262Z,100957.09
2023-05-14T20:27:09.701Z,100948.25
2023-05-14T20:29:37.980Z,100946.56
2023-05-14T20:32:07.380Z,100946.41
2023-05-14T20:34:35.667Z,100951.97
2023-05-14T20:37:05.565Z,100953.06
2023-05-14T20:39:35.424Z,100949.16
2023-05-14T20:42:03.919Z,100953.94
2023-05-14T20:44:32.278Z,100952.31
2023-05-14T20:47:00.793Z,100950.72
2023-05-14T20:49:29.525Z,100945.34
2023-05-14T20:51:57.889Z,100941.56
2023-05-14T20:54:26.270Z,100930.81
2023-05-14T20:56:56.020Z,100929.88
2023-05-14T20:59:24.572Z,100927.25
2023-05-14T21:01:52.937Z,100923.09
2023-05-14T21:04:21.421Z,100928.16
2023-05-14T21:06:50.063Z,100928.34
2023-05-14T21:09:18.345Z,100930.25
2023-05-14T21:11:46.799Z,100934.84
2023-05-14T21:14:16.639Z,100938.16
2023-05-14T21:16:45.195Z,100937.66
2023-05-14T21:19:15.349Z,100931.28
2023-05-14T21:21:44.172Z,100923.03
2023-05-14T21:24:12.451Z,100914.19
2023-05-14T21:26:41.464Z,100912.59
2023-05-14T21:29:09.878Z,100903.25
2023-05-14T21:31:39.753Z,100880.94
2023-05-14T21:34:08.201Z,100886.00
2023-05-14T21:36:36.970Z,100896.75
2023-05-14T21:39:05.596Z,100888.03
2023-05-14T21:41:33.997Z,100880.47
2023-05-14T21:44:02.304Z,100870.13
2023-05-14T21:46:30.752Z,100862.66
2023-05-14T21:49:00.526Z,100868.34
2023-05-14T21:51:29.072Z,100860.44
2023-05-14T21:53:57.373Z,100866.44
2023-05-14T21:56:26.431Z,100851.84
2023-05-14T21:58:56.194Z,100874.19
2023-05-14T22:01:24.567Z,100866.91
2023-05-14T22:03:53.641Z,100867.22
2023-05-14T22:06:24.360Z,100846.47
2023-05-14T22:08:52.716Z,100853.47
2023-05-14T22:11:21.971Z,100842.09
2023-05-14T22:13:50.542Z,100849.69
2023-05-14T22:16:18.953Z,100846.69
2023-05-14T22:18:47.392Z,100841.91
2023-05-14T22:21:15.750Z,100837.47
2023-05-14T22:23:45.653Z,100840.00
2023-05-14T22:26:13.995Z,100843.47
2023-05-14T22:28:43.200Z,100842.09
2023-05-14T22:31:11.806Z,100851.13
2023-05-14T22:33:40.171Z,100846.72
2023-05-14T22:36:08.946Z,100846.13
2023-05-14T22:38:37.228Z,100847.91
2023-05-14T22:41:07.035Z,100841.41
2023-05-14T22:43:35.496Z,100837.81
2023-05-14T22:46:03.833Z,100848.44
2023-05-14T22:48:32.196Z,100835.47
2023-05-14T22:51:00.734Z,100831.22
2023-05-14T22:53:29.057Z,100820.28
2023-05-14T22:55:57.398Z,100817.91
2023-05-14T22:58:27.333Z,100822.47
2023-05-14T23:00:55.628Z,100810.97
2023-05-14T23:03:23.924Z,100807.66
2023-05-14T23:05:52.937Z,100809.06
2023-05-14T23:08:21.226Z,100807.47
2023-05-14T23:10:49.748Z,100813.97
2023-05-14T23:13:19.277Z,100815.41
2023-05-14T23:15:49.055Z,100810.47
2023-05-14T23:18:17.539Z,100801.94
2023-05-14T23:20:45.998Z,100791.00
2023-05-14T23:23:14.381Z,100788.63
2023-05-14T23:25:42.938Z,100788.94
2023-05-14T23:28:11.424Z,100789.75
2023-05-14T23:30:39.761Z,100791.31
2023-05-14T23:33:09.535Z,100794.00
2023-05-14T23:35:39.711Z,100796.69
2023-05-14T23:38:08.392Z,100810.34
2023-05-14T23:40:36.937Z,100803.06
2023-05-14T23:43:05.308Z,100807.50
2023-05-14T23:45:33.951Z,100802.63
2023-05-14T23:48:03.597Z,100795.47
2023-05-14T23:50:33.561Z,100785.84
2023-05-14T23:53:02.162Z,100790.91
2023-05-14T23:55:30.639Z,100781.41
2023-05-14T23:57:59.093Z,100768.56
